sensor_id;sensor_type;location;lat;lon;timestamp;pressure;altitude;pressure_sealevel;temperature
71807;BMP280;59655;42.590;23.364;2023-08-30T00:02:03;90732.91;;;21.41
71807;BMP280;59655;42.590;23.364;2023-08-30T00:04:29;90736.97;;;21.42
71807;BMP280;59655;42.590;23.364;2023-08-30T00:06:55;90736.34;;;21.43
71807;BMP280;59655;42.590;23.364;2023-08-30T00:09:20;90731.22;;;21.30
71807;BMP280;59655;42.590;23.364;2023-08-30T00:11:45;90732.38;;;21.24
71807;BMP280;59655;42.590;23.364;2023-08-30T00:14:11;90722.59;;;21.35
71807;BMP280;59655;42.590;23.364;2023-08-30T00:16:36;90714.38;;;21.31
71807;BMP280;59655;42.590;23.364;2023-08-30T00:19:03;90718.38;;;21.30
71807;BMP280;59655;42.590;23.364;2023-08-30T00:21:29;90712.19;;;21.25
71807;BMP280;59655;42.590;23.364;2023-08-30T00:23:55;90721.47;;;21.20
71807;BMP280;59655;42.590;23.364;2023-08-30T00:26:20;90720.66;;;21.16
71807;BMP280;59655;42.590;23.364;2023-08-30T00:28:46;90718.56;;;21.14
71807;BMP280;59655;42.590;23.364;2023-08-30T00:31:11;90718.41;;;21.08
71807;BMP280;59655;42.590;23.364;2023-08-30T00:33:37;90723.22;;;21.12
71807;BMP280;59655;42.590;23.364;2023-08-30T00:36:03;90746.81;;;21.11
71807;BMP280;59655;42.590;23.364;2023-08-30T00:38:29;90744.28;;;20.95
71807;BMP280;59655;42.590;23.364;2023-08-30T00:40:54;90744.75;;;20.90
71807;BMP280;59655;42.590;23.364;2023-08-30T00:43:20;90743.50;;;20.93
71807;BMP280;59655;42.590;23.364;2023-08-30T00:45:47;90743.63;;;20.97
71807;BMP280;59655;42.590;23.364;2023-08-30T00:48:12;90729.91;;;20.89
71807;BMP280;59655;42.590;23.364;2023-08-30T00:50:39;90732.50;;;20.87
71807;BMP280;59655;42.590;23.364;2023-08-30T00:53:06;90731.59;;;21.00
71807;BMP280;59655;42.590;23.364;2023-08-30T00:55:35;90734.09;;;20.94
71807;BMP280;59655;42.590;23.364;2023-08-30T00:58:02;90738.06;;;20.91
71807;BMP280;59655;42.590;23.364;2023-08-30T01:00:29;90751.81;;;20.99
71807;BMP280;59655;42.590;23.364;2023-08-30T01:02:55;90749.84;;;21.01
71807;BMP280;59655;42.590;23.364;2023-08-30T01:05:21;90753.19;;;21.00
71807;BMP280;59655;42.590;23.364;2023-08-30T01:07:46;90757.63;;;20.91
71807;BMP280;59655;42.590;23.364;2023-08-30T01:10:12;90757.00;;;20.93
71807;BMP280;59655;42.590;23.364;2023-08-30T01:12:41;90764.81;;;20.85
71807;BMP280;59655;42.590;23.364;2023-08-30T01:15:18;90761.22;;;20.78
71807;BMP280;59655;42.590;23.364;2023-08-30T01:17:44;90757.84;;;20.77
71807;BMP280;59655;42.590;23.364;2023-08-30T01:20:14;90753.56;;;20.70
71807;BMP280;59655;42.590;23.364;2023-08-30T01:22:57;90756.19;;;20.68
71807;BMP280;59655;42.590;23.364;2023-08-30T01:27:51;90738.69;;;20.69
71807;BMP280;59655;42.590;23.364;2023-08-30T01:30:18;90732.59;;;20.69
71807;BMP280;59655;42.590;23.364;2023-08-30T01:32:45;90744.06;;;20.69
71807;BMP280;59655;42.590;23.364;2023-08-30T01:35:12;90763.94;;;20.58
71807;BMP280;59655;42.590;23.364;2023-08-30T01:37:47;90746.56;;;20.63
71807;BMP280;59655;42.590;23.364;2023-08-30T01:40:15;90745.72;;;20.59
71807;BMP280;59655;42.590;23.364;2023-08-30T01:42:43;90758.22;;;20.50
71807;BMP280;59655;42.590;23.364;2023-08-30T01:45:11;90764.28;;;20.48
71807;BMP280;59655;42.590;23.364;2023-08-30T01:47:39;90759.13;;;20.37
71807;BMP280;59655;42.590;23.364;2023-08-30T01:50:06;90745.25;;;20.44
71807;BMP280;59655;42.590;23.364;2023-08-30T01:52:32;90745.53;;;20.52
71807;BMP280;59655;42.590;23.364;2023-08-30T01:54:58;90744.41;;;20.20
71807;BMP280;59655;42.590;23.364;2023-08-30T01:57:30;90740.03;;;20.30
71807;BMP280;59655;42.590;23.364;2023-08-30T01:59:56;90730.53;;;20.27
71807;BMP280;59655;42.590;23.364;2023-08-30T02:02:22;90744.00;;;20.27
71807;BMP280;59655;42.590;23.364;2023-08-30T02:04:47;90744.56;;;20.24
71807;BMP280;59655;42.590;23.364;2023-08-30T02:07:26;90730.28;;;20.21
71807;BMP280;59655;42.590;23.364;2023-08-30T02:09:57;90732.03;;;20.33
71807;BMP280;59655;42.590;23.364;2023-08-30T02:12:24;90737.13;;;20.24
71807;BMP280;59655;42.590;23.364;2023-08-30T02:14:53;90738.31;;;20.19
71807;BMP280;59655;42.590;23.364;2023-08-30T02:17:20;90744.72;;;20.10
71807;BMP280;59655;42.590;23.364;2023-08-30T02:19:46;90742.78;;;20.13
71807;BMP280;59655;42.590;23.364;2023-08-30T02:22:12;90731.13;;;20.26
71807;BMP280;59655;42.590;23.364;2023-08-30T02:24:38;90729.03;;;20.24
71807;BMP280;59655;42.590;23.364;2023-08-30T02:27:03;90724.75;;;20.17
71807;BMP280;59655;42.590;23.364;2023-08-30T02:29:29;90731.59;;;20.20
71807;BMP280;59655;42.590;23.364;2023-08-30T02:31:55;90733.78;;;20.06
71807;BMP280;59655;42.590;23.364;2023-08-30T02:34:20;90738.31;;;20.19
71807;BMP280;59655;42.590;23.364;2023-08-30T02:36:45;90733.31;;;20.12
71807;BMP280;59655;42.590;23.364;2023-08-30T02:39:13;90733.25;;;20.10
71807;BMP280;59655;42.590;23.364;2023-08-30T02:41:39;90736.78;;;20.14
71807;BMP280;59655;42.590;23.364;2023-08-30T02:44:07;90738.41;;;20.03
71807;BMP280;59655;42.590;23.364;2023-08-30T02:46:32;90735.72;;;20.03
71807;BMP280;59655;42.590;23.364;2023-08-30T02:48:58;90738.13;;;19.95
71807;BMP280;59655;42.590;23.364;2023-08-30T02:51:25;90733.66;;;19.84
71807;BMP280;59655;42.590;23.364;2023-08-30T02:53:50;90722.28;;;19.86
71807;BMP280;59655;42.590;23.364;2023-08-30T02:56:16;90730.13;;;19.97
71807;BMP280;59655;42.590;23.364;2023-08-30T02:58:41;90729.03;;;20.04
71807;BMP280;59655;42.590;23.364;2023-08-30T03:01:07;90733.19;;;19.90
71807;BMP280;59655;42.590;23.364;2023-08-30T03:03:32;90734.13;;;19.78
71807;BMP280;59655;42.590;23.364;2023-08-30T03:05:58;90732.56;;;19.73
71807;BMP280;59655;42.590;23.364;2023-08-30T03:08:23;90730.75;;;19.60
71807;BMP280;59655;42.590;23.364;2023-08-30T03:10:49;90726.22;;;19.65
71807;BMP280;59655;42.590;23.364;2023-08-30T03:13:14;90729.75;;;19.51
71807;BMP280;59655;42.590;23.364;2023-08-30T03:15:39;90730.34;;;19.50
71807;BMP280;59655;42.590;23.364;2023-08-30T03:18:05;90733.28;;;19.56
71807;BMP280;59655;42.590;23.364;2023-08-30T03:20:30;90730.13;;;19.62
71807;BMP280;59655;42.590;23.364;2023-08-30T03:22:56;90732.28;;;19.65
71807;BMP280;59655;42.590;23.364;2023-08-30T03:25:22;90735.75;;;19.68
71807;BMP280;59655;42.590;23.364;2023-08-30T03:27:47;90730.38;;;19.68
71807;BMP280;59655;42.590;23.364;2023-08-30T03:30:13;90725.06;;;19.52
71807;BMP280;59655;42.590;23.364;2023-08-30T03:32:38;90731.50;;;19.45
71807;BMP280;59655;42.590;23.364;2023-08-30T03:35:05;90726.59;;;19.57
71807;BMP280;59655;42.590;23.364;2023-08-30T03:37:30;90728.16;;;19.62
71807;BMP280;59655;42.590;23.364;2023-08-30T03:39:56;90709.06;;;19.56
71807;BMP280;59655;42.590;23.364;2023-08-30T03:42:21;90709.06;;;19.56
71807;BMP280;59655;42.590;23.364;2023-08-30T03:44:47;90704.84;;;19.51
71807;BMP280;59655;42.590;23.364;2023-08-30T03:47:14;90703.53;;;19.52
71807;BMP280;59655;42.590;23.364;2023-08-30T03:49:43;90708.22;;;19.51
71807;BMP280;59655;42.590;23.364;2023-08-30T03:52:09;90714.81;;;19.48
71807;BMP280;59655;42.590;23.364;2023-08-30T03:54:34;90715.91;;;19.41
71807;BMP280;59655;42.590;23.364;2023-08-30T03:57:00;90712.66;;;19.27
71807;BMP280;59655;42.590;23.364;2023-08-30T03:59:25;90715.88;;;19.23
71807;BMP280;59655;42.590;23.364;2023-08-30T04:01:52;90721.06;;;19.01
71807;BMP280;59655;42.590;23.364;2023-08-30T04:04:19;90726.28;;;18.97
71807;BMP280;59655;42.590;23.364;2023-08-30T04:06:45;90739.03;;;19.30
71807;BMP280;59655;42.590;23.364;2023-08-30T04:09:11;90741.34;;;19.38
71807;BMP280;59655;42.590;23.364;2023-08-30T04:11:37;90729.59;;;19.29
71807;BMP280;59655;42.590;23.364;2023-08-30T04:14:02;90724.28;;;19.31
71807;BMP280;59655;42.590;23.364;2023-08-30T04:16:28;90734.53;;;19.35
71807;BMP280;59655;42.590;23.364;2023-08-30T04:18:54;90743.44;;;19.57
71807;BMP280;59655;42.590;23.364;2023-08-30T04:21:19;90738.13;;;19.59
71807;BMP280;59655;42.590;23.364;2023-08-30T04:23:45;90729.22;;;19.55
71807;BMP280;59655;42.590;23.364;2023-08-30T04:26:10;90744.97;;;19.45
71807;BMP280;59655;42.590;23.364;2023-08-30T04:28:36;90760.38;;;19.60
71807;BMP280;59655;42.590;23.364;2023-08-30T04:31:01;90758.44;;;19.63
71807;BMP280;59655;42.590;23.364;2023-08-30T04:33:27;90761.81;;;19.63
71807;BMP280;59655;42.590;23.364;2023-08-30T04:35:53;90762.19;;;19.73
71807;BMP280;59655;42.590;23.364;2023-08-30T04:38:19;90778.66;;;19.64
71807;BMP280;59655;42.590;23.364;2023-08-30T04:40:45;90785.28;;;19.61
71807;BMP280;59655;42.590;23.364;2023-08-30T04:43:11;90782.13;;;19.66
71807;BMP280;59655;42.590;23.364;2023-08-30T04:45:36;90784.91;;;19.68
71807;BMP280;59655;42.590;23.364;2023-08-30T04:48:02;90779.44;;;19.66
71807;BMP280;59655;42.590;23.364;2023-08-30T04:50:27;90778.03;;;19.65
71807;BMP280;59655;42.590;23.364;2023-08-30T04:52:53;90777.59;;;19.71
71807;BMP280;59655;42.590;23.364;2023-08-30T04:55:18;90788.38;;;19.71
71807;BMP280;59655;42.590;23.364;2023-08-30T04:57:44;90789.53;;;19.66
71807;BMP280;59655;42.590;23.364;2023-08-30T05:00:11;90782.28;;;19.70
71807;BMP280;59655;42.590;23.364;2023-08-30T05:02:37;90779.50;;;19.68
71807;BMP280;59655;42.590;23.364;2023-08-30T05:05:03;90786.84;;;19.66
71807;BMP280;59655;42.590;23.364;2023-08-30T05:07:29;90786.84;;;19.66
71807;BMP280;59655;42.590;23.364;2023-08-30T05:09:54;90784.59;;;19.60
71807;BMP280;59655;42.590;23.364;2023-08-30T05:12:20;90785.44;;;19.65
71807;BMP280;59655;42.590;23.364;2023-08-30T05:14:45;90788.72;;;19.63
71807;BMP280;59655;42.590;23.364;2023-08-30T05:17:10;90792.53;;;19.74
71807;BMP280;59655;42.590;23.364;2023-08-30T05:19:36;90785.03;;;19.72
71807;BMP280;59655;42.590;23.364;2023-08-30T05:22:01;90791.56;;;19.67
71807;BMP280;59655;42.590;23.364;2023-08-30T05:24:27;90794.66;;;19.59
71807;BMP280;59655;42.590;23.364;2023-08-30T05:26:53;90798.75;;;19.61
71807;BMP280;59655;42.590;23.364;2023-08-30T05:29:19;90798.81;;;19.63
71807;BMP280;59655;42.590;23.364;2023-08-30T05:31:44;90794.25;;;19.67
71807;BMP280;59655;42.590;23.364;2023-08-30T05:34:10;90795.66;;;19.68
71807;BMP280;59655;42.590;23.364;2023-08-30T05:36:36;90792.97;;;19.68
71807;BMP280;59655;42.590;23.364;2023-08-30T05:39:05;90793.06;;;19.70
71807;BMP280;59655;42.590;23.364;2023-08-30T05:41:32;90793.28;;;19.76
71807;BMP280;59655;42.590;23.364;2023-08-30T05:43:58;90786.53;;;19.75
71807;BMP280;59655;42.590;23.364;2023-08-30T05:46:23;90789.84;;;19.74
71807;BMP280;59655;42.590;23.364;2023-08-30T05:48:49;90796.13;;;19.80
71807;BMP280;59655;42.590;23.364;2023-08-30T05:51:14;90797.59;;;19.83
71807;BMP280;59655;42.590;23.364;2023-08-30T05:53:40;90793.59;;;19.85
71807;BMP280;59655;42.590;23.364;2023-08-30T05:56:06;90788.84;;;19.83
71807;BMP280;59655;42.590;23.364;2023-08-30T05:58:32;90790.72;;;19.80
71807;BMP280;59655;42.590;23.364;2023-08-30T06:00:58;90796.34;;;19.87
71807;BMP280;59655;42.590;23.364;2023-08-30T06:03:25;90796.53;;;19.91
71807;BMP280;59655;42.590;23.364;2023-08-30T06:05:50;90798.44;;;19.88
71807;BMP280;59655;42.590;23.364;2023-08-30T06:08:16;90787.66;;;19.88
71807;BMP280;59655;42.590;23.364;2023-08-30T06:10:43;90789.97;;;19.96
71807;BMP280;59655;42.590;23.364;2023-08-30T06:13:09;90789.97;;;19.96
71807;BMP280;59655;42.590;23.364;2023-08-30T06:15:37;90791.13;;;19.91
71807;BMP280;59655;42.590;23.364;2023-08-30T06:18:06;90787.97;;;19.96
71807;BMP280;59655;42.590;23.364;2023-08-30T06:20:31;90798.28;;;20.02
71807;BMP280;59655;42.590;23.364;2023-08-30T06:22:58;90799.22;;;20.09
71807;BMP280;59655;42.590;23.364;2023-08-30T06:25:24;90801.44;;;20.14
71807;BMP280;59655;42.590;23.364;2023-08-30T06:27:58;90799.44;;;20.15
71807;BMP280;59655;42.590;23.364;2023-08-30T06:30:29;90797.50;;;20.17
71807;BMP280;59655;42.590;23.364;2023-08-30T06:33:18;90804.47;;;20.24
71807;BMP280;59655;42.590;23.364;2023-08-30T06:36:13;90796.41;;;20.24
71807;BMP280;59655;42.590;23.364;2023-08-30T06:38:46;90805.25;;;20.27
71807;BMP280;59655;42.590;23.364;2023-08-30T06:41:42;90812.88;;;20.33
71807;BMP280;59655;42.590;23.364;2023-08-30T06:44:10;90812.19;;;20.32
71807;BMP280;59655;42.590;23.364;2023-08-30T06:46:38;90809.66;;;20.36
71807;BMP280;59655;42.590;23.364;2023-08-30T06:49:07;90812.47;;;20.40
71807;BMP280;59655;42.590;23.364;2023-08-30T06:51:40;90810.50;;;20.41
71807;BMP280;59655;42.590;23.364;2023-08-30T06:54:11;90812.06;;;20.48
71807;BMP280;59655;42.590;23.364;2023-08-30T06:56:56;90809.59;;;20.54
71807;BMP280;59655;42.590;23.364;2023-08-30T06:59:26;90807.13;;;20.60
71807;BMP280;59655;42.590;23.364;2023-08-30T07:02:06;90815.34;;;20.64
71807;BMP280;59655;42.590;23.364;2023-08-30T07:04:36;90808.19;;;20.71
71807;BMP280;59655;42.590;23.364;2023-08-30T07:07:05;90810.94;;;20.73
71807;BMP280;59655;42.590;23.364;2023-08-30T07:09:34;90806.25;;;20.73
71807;BMP280;59655;42.590;23.364;2023-08-30T07:12:01;90811.16;;;20.79
71807;BMP280;59655;42.590;23.364;2023-08-30T07:14:27;90803.91;;;20.84
71807;BMP280;59655;42.590;23.364;2023-08-30T07:16:53;90809.44;;;20.88
71807;BMP280;59655;42.590;23.364;2023-08-30T07:19:19;90809.50;;;20.90
71807;BMP280;59655;42.590;23.364;2023-08-30T07:21:45;90810.94;;;20.93
71807;BMP280;59655;42.590;23.364;2023-08-30T07:24:11;90809.06;;;20.97
71807;BMP280;59655;42.590;23.364;2023-08-30T07:26:38;90807.19;;;21.02
71807;BMP280;59655;42.590;23.364;2023-08-30T07:29:05;90805.34;;;21.07
71807;BMP280;59655;42.590;23.364;2023-08-30T07:31:33;90812.66;;;21.04
71807;BMP280;59655;42.590;23.364;2023-08-30T07:33:59;90818.84;;;21.07
71807;BMP280;59655;42.590;23.364;2023-08-30T07:36:27;90812.97;;;21.12
71807;BMP280;59655;42.590;23.364;2023-08-30T07:38:53;90809.69;;;21.16
71807;BMP280;59655;42.590;23.364;2023-08-30T07:41:19;90807.13;;;21.20
71807;BMP280;59655;42.590;23.364;2023-08-30T07:43:44;90793.78;;;21.24
71807;BMP280;59655;42.590;23.364;2023-08-30T07:46:10;90806.16;;;21.31
71807;BMP280;59655;42.590;23.364;2023-08-30T07:48:35;90804.94;;;21.36
71807;BMP280;59655;42.590;23.364;2023-08-30T07:51:01;90809.06;;;21.37
71807;BMP280;59655;42.590;23.364;2023-08-30T07:53:27;90805.84;;;21.43
71807;BMP280;59655;42.590;23.364;2023-08-30T07:55:54;90802.16;;;21.54
71807;BMP280;59655;42.590;23.364;2023-08-30T07:58:31;90808.91;;;21.55
71807;BMP280;59655;42.590;23.364;2023-08-30T08:01:02;90815.13;;;21.60
71807;BMP280;59655;42.590;23.364;2023-08-30T08:03:30;90811.94;;;21.65
71807;BMP280;59655;42.590;23.364;2023-08-30T08:05:58;90810.06;;;21.70
71807;BMP280;59655;42.590;23.364;2023-08-30T08:08:24;90812.34;;;21.78
71807;BMP280;59655;42.590;23.364;2023-08-30T08:10:49;90815.59;;;21.74
71807;BMP280;59655;42.590;23.364;2023-08-30T08:13:15;90815.97;;;21.86
71807;BMP280;59655;42.590;23.364;2023-08-30T08:15:41;90820.38;;;21.75
71807;BMP280;59655;42.590;23.364;2023-08-30T08:18:09;90824.03;;;21.62
71807;BMP280;59655;42.590;23.364;2023-08-30T08:20:37;90822.09;;;21.67
71807;BMP280;59655;42.590;23.364;2023-08-30T08:23:04;90817.66;;;21.75
71807;BMP280;59655;42.590;23.364;2023-08-30T08:25:29;90813.13;;;21.82
71807;BMP280;59655;42.590;23.364;2023-08-30T08:27:55;90824.94;;;21.93
71807;BMP280;59655;42.590;23.364;2023-08-30T08:30:20;90824.38;;;21.96
71807;BMP280;59655;42.590;23.364;2023-08-30T08:32:54;90821.78;;;21.79
71807;BMP280;59655;42.590;23.364;2023-08-30T08:35:21;90816.94;;;21.75
71807;BMP280;59655;42.590;23.364;2023-08-30T08:37:46;90833.63;;;21.89
71807;BMP280;59655;42.590;23.364;2023-08-30T08:40:12;90832.59;;;21.79
71807;BMP280;59655;42.590;23.364;2023-08-30T08:42:37;90829.16;;;21.76
71807;BMP280;59655;42.590;23.364;2023-08-30T08:45:03;90822.06;;;21.87
71807;BMP280;59655;42.590;23.364;2023-08-30T08:47:32;90830.34;;;21.93
71807;BMP280;59655;42.590;23.364;2023-08-30T08:49:58;90833.22;;;21.99
71807;BMP280;59655;42.590;23.364;2023-08-30T08:52:25;90825.19;;;22.01
71807;BMP280;59655;42.590;23.364;2023-08-30T08:54:51;90819.59;;;21.95
71807;BMP280;59655;42.590;23.364;2023-08-30T08:57:17;90819.25;;;22.07
71807;BMP280;59655;42.590;23.364;2023-08-30T08:59:42;90822.78;;;22.11
71807;BMP280;59655;42.590;23.364;2023-08-30T09:02:10;90819.94;;;22.07
71807;BMP280;59655;42.590;23.364;2023-08-30T09:04:37;90822.78;;;22.11
71807;BMP280;59655;42.590;23.364;2023-08-30T09:07:02;90830.72;;;22.05
71807;BMP280;59655;42.590;23.364;2023-08-30T09:09:28;90827.31;;;22.05
71807;BMP280;59655;42.590;23.364;2023-08-30T09:11:53;90833.78;;;22.17
71807;BMP280;59655;42.590;23.364;2023-08-30T09:14:19;90834.53;;;22.20
71807;BMP280;59655;42.590;23.364;2023-08-30T09:17:01;90826.75;;;22.08
71807;BMP280;59655;42.590;23.364;2023-08-30T09:19:28;90823.34;;;22.08
71807;BMP280;59655;42.590;23.364;2023-08-30T09:21:59;90827.06;;;22.18
71807;BMP280;59655;42.590;23.364;2023-08-30T09:24:25;90826.41;;;22.20
71807;BMP280;59655;42.590;23.364;2023-08-30T09:26:53;90827.72;;;22.19
71807;BMP280;59655;42.590;23.364;2023-08-30T09:29:20;90829.25;;;22.24
71807;BMP280;59655;42.590;23.364;2023-08-30T09:31:51;90829.66;;;22.14
71807;BMP280;59655;42.590;23.364;2023-08-30T09:34:22;90828.06;;;22.29
71807;BMP280;59655;42.590;23.364;2023-08-30T09:36:49;90826.25;;;22.38
71807;BMP280;59655;42.590;23.364;2023-08-30T09:39:15;90834.25;;;22.34
71807;BMP280;59655;42.590;23.364;2023-08-30T09:41:45;90830.97;;;22.37
71807;BMP280;59655;42.590;23.364;2023-08-30T09:44:15;90827.19;;;22.46
71807;BMP280;59655;42.590;23.364;2023-08-30T09:49:11;90827.78;;;22.69
71807;BMP280;59655;42.590;23.364;2023-08-30T09:51:41;90820.91;;;22.64
71807;BMP280;59655;42.590;23.364;2023-08-30T09:54:24;90815.50;;;22.64
71807;BMP280;59655;42.590;23.364;2023-08-30T09:57:02;90819.00;;;22.68
71807;BMP280;59655;42.590;23.364;2023-08-30T09:59:40;90812.25;;;22.69
71807;BMP280;59655;42.590;23.364;2023-08-30T10:02:12;90812.44;;;22.76
71807;BMP280;59655;42.590;23.364;2023-08-30T10:04:40;90807.81;;;22.80
71807;BMP280;59655;42.590;23.364;2023-08-30T10:07:11;90809.13;;;22.79
71807;BMP280;59655;42.590;23.364;2023-08-30T10:09:37;90812.69;;;22.86
71807;BMP280;59655;42.590;23.364;2023-08-30T10:12:06;90801.13;;;22.83
71807;BMP280;59655;42.590;23.364;2023-08-30T10:14:31;90804.63;;;22.88
71807;BMP280;59655;42.590;23.364;2023-08-30T10:17:02;90802.13;;;22.96
71807;BMP280;59655;42.590;23.364;2023-08-30T10:19:32;90805.00;;;23.02
71807;BMP280;59655;42.590;23.364;2023-08-30T10:22:02;90811.22;;;23.07
71807;BMP280;59655;42.590;23.364;2023-08-30T10:24:31;90803.78;;;23.07
71807;BMP280;59655;42.590;23.364;2023-08-30T10:30:26;90801.13;;;23.11
71807;BMP280;59655;42.590;23.364;2023-08-30T10:32:52;90803.22;;;23.13
71807;BMP280;59655;42.590;23.364;2023-08-30T10:35:19;90812.19;;;23.19
71807;BMP280;59655;42.590;23.364;2023-08-30T10:37:59;90799.53;;;23.28
71807;BMP280;59655;42.590;23.364;2023-08-30T10:40:25;90796.84;;;23.28
71807;BMP280;59655;42.590;23.364;2023-08-30T10:43:02;90788.72;;;23.28
71807;BMP280;59655;42.590;23.364;2023-08-30T10:45:29;90794.81;;;23.29
71807;BMP280;59655;42.590;23.364;2023-08-30T10:47:57;90797.63;;;23.33
71807;BMP280;59655;42.590;23.364;2023-08-30T10:50:32;90796.94;;;23.32
71807;BMP280;59655;42.590;23.364;2023-08-30T10:52:58;90797.63;;;23.33
71807;BMP280;59655;42.590;23.364;2023-08-30T10:55:30;90796.38;;;23.38
71807;BMP280;59655;42.590;23.364;2023-08-30T10:58:01;90795.13;;;23.41
71807;BMP280;59655;42.590;23.364;2023-08-30T11:00:30;90795.22;;;23.45
71807;BMP280;59655;42.590;23.364;2023-08-30T11:02:56;90789.88;;;23.49
71807;BMP280;59655;42.590;23.364;2023-08-30T11:05:23;90789.34;;;23.55
71807;BMP280;59655;42.590;23.364;2023-08-30T11:07:50;90793.63;;;23.64
71807;BMP280;59655;42.590;23.364;2023-08-30T11:10:17;90791.56;;;23.62
71807;BMP280;59655;42.590;23.364;2023-08-30T11:12:43;90788.78;;;23.60
71807;BMP280;59655;42.590;23.364;2023-08-30T11:15:10;90791.56;;;23.62
71807;BMP280;59655;42.590;23.364;2023-08-30T11:17:36;90797.06;;;23.66
71807;BMP280;59655;42.590;23.364;2023-08-30T11:20:11;90786.31;;;23.70
71807;BMP280;59655;42.590;23.364;2023-08-30T11:22:39;90785.72;;;23.74
71807;BMP280;59655;42.590;23.364;2023-08-30T11:25:08;90782.34;;;23.74
71807;BMP280;59655;42.590;23.364;2023-08-30T11:27:33;90775.47;;;23.70
71807;BMP280;59655;42.590;23.364;2023-08-30T11:30:02;90774.88;;;23.74
71807;BMP280;59655;42.590;23.364;2023-08-30T11:32:38;90767.44;;;23.75
71807;BMP280;59655;42.590;23.364;2023-08-30T11:35:06;90761.44;;;23.78
71807;BMP280;59655;42.590;23.364;2023-08-30T11:37:32;90762.75;;;23.77
71807;BMP280;59655;42.590;23.364;2023-08-30T11:39:58;90758.81;;;23.82
71807;BMP280;59655;42.590;23.364;2023-08-30T11:42:30;90765.00;;;23.87
71807;BMP280;59655;42.590;23.364;2023-08-30T11:45:03;90752.81;;;23.88
71807;BMP280;59655;42.590;23.364;2023-08-30T11:47:33;90756.94;;;23.91
71807;BMP280;59655;42.590;23.364;2023-08-30T11:50:08;90748.28;;;23.97
71807;BMP280;59655;42.590;23.364;2023-08-30T11:52:36;90752.41;;;24.02
71807;BMP280;59655;42.590;23.364;2023-08-30T11:55:09;90756.59;;;24.07
71807;BMP280;59655;42.590;23.364;2023-08-30T11:57:43;90745.25;;;24.14
71807;BMP280;59655;42.590;23.364;2023-08-30T12:00:11;90741.94;;;24.20
71807;BMP280;59655;42.590;23.364;2023-08-30T12:02:41;90742.03;;;24.24
71807;BMP280;59655;42.590;23.364;2023-08-30T12:05:12;90742.03;;;24.24
71807;BMP280;59655;42.590;23.364;2023-08-30T12:07:40;90735.31;;;24.27
71807;BMP280;59655;42.590;23.364;2023-08-30T12:10:09;90740.75;;;24.27
71807;BMP280;59655;42.590;23.364;2023-08-30T12:12:34;90746.88;;;24.30
71807;BMP280;59655;42.590;23.364;2023-08-30T12:15:15;90750.53;;;24.42
71807;BMP280;59655;42.590;23.364;2023-08-30T12:17:42;90736.59;;;24.58
71807;BMP280;59655;42.590;23.364;2023-08-30T12:20:15;90736.75;;;24.68
71807;BMP280;59655;42.590;23.364;2023-08-30T12:22:42;90741.06;;;24.82
71807;BMP280;59655;42.590;23.364;2023-08-30T12:25:20;90741.00;;;24.78
71807;BMP280;59655;42.590;23.364;2023-08-30T12:27:48;90732.16;;;24.77
71807;BMP280;59655;42.590;23.364;2023-08-30T12:30:17;90728.75;;;24.77
71807;BMP280;59655;42.590;23.364;2023-08-30T12:32:45;90730.06;;;24.74
71807;BMP280;59655;42.590;23.364;2023-08-30T12:35:10;90727.31;;;24.72
71807;BMP280;59655;42.590;23.364;2023-08-30T12:37:36;90725.91;;;24.68
71807;BMP280;59655;42.590;23.364;2023-08-30T12:40:01;90727.25;;;24.67
71807;BMP280;59655;42.590;23.364;2023-08-30T12:42:28;90718.47;;;24.71
71807;BMP280;59655;42.590;23.364;2023-08-30T12:44:55;90719.44;;;24.88
71807;BMP280;59655;42.590;23.364;2023-08-30T12:47:20;90711.88;;;27.01
71807;BMP280;59655;42.590;23.364;2023-08-30T12:49:46;90716.75;;;27.16
71807;BMP280;59655;42.590;23.364;2023-08-30T12:52:11;90720.16;;;29.18
71807;BMP280;59655;42.590;23.364;2023-08-30T12:54:37;90716.34;;;30.46
71807;BMP280;59655;42.590;23.364;2023-08-30T12:57:02;90713.00;;;30.35
71807;BMP280;59655;42.590;23.364;2023-08-30T12:59:28;90715.53;;;31.48
71807;BMP280;59655;42.590;23.364;2023-08-30T13:01:56;90700.97;;;31.64
71807;BMP280;59655;42.590;23.364;2023-08-30T13:04:23;90706.72;;;32.52
71807;BMP280;59655;42.590;23.364;2023-08-30T13:06:49;90705.00;;;33.17
71807;BMP280;59655;42.590;23.364;2023-08-30T13:09:14;90713.25;;;33.56
71807;BMP280;59655;42.590;23.364;2023-08-30T13:11:39;90715.06;;;34.03
71807;BMP280;59655;42.590;23.364;2023-08-30T13:14:05;90707.38;;;34.41
71807;BMP280;59655;42.590;23.364;2023-08-30T13:16:30;90720.72;;;34.90
71807;BMP280;59655;42.590;23.364;2023-08-30T13:18:55;90712.72;;;35.07
71807;BMP280;59655;42.590;23.364;2023-08-30T13:21:21;90713.56;;;35.28
71807;BMP280;59655;42.590;23.364;2023-08-30T13:23:46;90710.31;;;35.47
71807;BMP280;59655;42.590;23.364;2023-08-30T13:26:12;90711.06;;;35.70
71807;BMP280;59655;42.590;23.364;2023-08-30T13:28:37;90711.22;;;35.89
71807;BMP280;59655;42.590;23.364;2023-08-30T13:31:06;90705.34;;;35.78
71807;BMP280;59655;42.590;23.364;2023-08-30T13:33:31;90723.72;;;35.88
71807;BMP280;59655;42.590;23.364;2023-08-30T13:35:57;90716.56;;;35.97
71807;BMP280;59655;42.590;23.364;2023-08-30T13:38:22;90713.41;;;36.78
71807;BMP280;59655;42.590;23.364;2023-08-30T13:40:48;90714.81;;;36.77
71807;BMP280;59655;42.590;23.364;2023-08-30T13:43:13;90713.81;;;37.08
71807;BMP280;59655;42.590;23.364;2023-08-30T13:45:38;90714.09;;;37.20
71807;BMP280;59655;42.590;23.364;2023-08-30T13:48:04;90722.22;;;37.05
71807;BMP280;59655;42.590;23.364;2023-08-30T13:50:30;90715.09;;;37.11
71807;BMP280;59655;42.590;23.364;2023-08-30T13:52:57;90718.84;;;37.24
71807;BMP280;59655;42.590;23.364;2023-08-30T13:55:23;90711.84;;;37.25
71807;BMP280;59655;42.590;23.364;2023-08-30T13:57:48;90714.44;;;37.10
71807;BMP280;59655;42.590;23.364;2023-08-30T14:00:14;90714.09;;;37.20
71807;BMP280;59655;42.590;23.364;2023-08-30T14:02:39;90722.38;;;36.78
71807;BMP280;59655;42.590;23.364;2023-08-30T14:05:05;90723.94;;;36.51
71807;BMP280;59655;42.590;23.364;2023-08-30T14:07:31;90725.34;;;36.49